createdAt,value
2022-09-02T00:01:45.529Z,59.6
2022-09-02T00:04:33.594Z,58.7
2022-09-02T00:07:21.255Z,58.5
2022-09-02T00:10:08.938Z,59.4
2022-09-02T00:12:56.628Z,59.9
2022-09-02T00:15:44.429Z,60.3
2022-09-02T00:18:33.771Z,61
2022-09-02T00:21:24.434Z,61.4
2022-09-02T00:24:12.206Z,61.8
2022-09-02T00:26:59.970Z,62.2
2022-09-02T00:29:47.770Z,62.1
2022-09-02T00:32:35.391Z,61.2
2022-09-02T00:35:23.686Z,59.3
2022-09-02T00:38:12.550Z,58.5
2022-09-02T00:41:00.289Z,59.9
2022-09-02T00:43:53.147Z,60.6
2022-09-02T00:46:44.414Z,61.3
2022-09-02T00:49:32.921Z,62.2
2022-09-02T00:52:26.502Z,61.8
2022-09-02T00:55:18.642Z,61.3
2022-09-02T00:58:10.742Z,59.7
2022-09-02T01:01:02.984Z,58.2
2022-09-02T01:03:50.999Z,58.8
2022-09-02T01:06:39.569Z,59.4
2022-09-02T01:09:27.126Z,60.2
2022-09-02T01:12:16.852Z,61
2022-09-02T01:15:04.364Z,61.4
2022-09-02T01:17:54.641Z,62.2
2022-09-02T01:20:43.573Z,62.8
2022-09-02T01:23:34.760Z,62.3
2022-09-02T01:26:24.070Z,60.5
2022-09-02T01:29:11.790Z,58.9
2022-09-02T01:32:01.286Z,58.2
2022-09-02T01:34:49.066Z,59
2022-09-02T01:37:37.645Z,59.8
2022-09-02T01:40:25.451Z,61
2022-09-02T01:43:14.766Z,61.2
2022-09-02T01:46:04.980Z,62.3
2022-09-02T01:48:53.229Z,62.7
2022-09-02T01:51:40.853Z,62.7
2022-09-02T01:54:28.406Z,60.5
2022-09-02T01:57:15.869Z,58.6
2022-09-02T02:00:03.941Z,58.9
2022-09-02T02:02:55.350Z,59.6
2022-09-02T02:05:43.013Z,60.4
2022-09-02T02:08:30.754Z,61.2
2022-09-02T02:11:18.595Z,61.9
2022-09-02T02:14:08.357Z,62.9
2022-09-02T02:16:56.652Z,63.6
2022-09-02T02:19:44.237Z,62.5
2022-09-02T02:22:31.925Z,60.6
2022-09-02T02:25:19.731Z,59.2
2022-09-02T02:28:07.677Z,58.5
2022-09-02T02:30:55.728Z,59.8
2022-09-02T02:33:45.327Z,60.2
2022-09-02T02:36:32.911Z,60.9
2022-09-02T02:39:20.539Z,61.6
2022-09-02T02:42:08.222Z,62.5
2022-09-02T02:44:58.127Z,64
2022-09-02T02:47:45.849Z,62.7
2022-09-02T02:50:34.235Z,61.4
2022-09-02T02:53:22.104Z,60
2022-09-02T02:56:09.703Z,59.3
2022-09-02T02:58:57.324Z,58.5
2022-09-02T03:01:48.098Z,59.6
2022-09-02T03:04:35.715Z,60.6
2022-09-02T03:07:24.662Z,61.6
2022-09-02T03:10:12.390Z,63
2022-09-02T03:13:00.643Z,62.5
2022-09-02T03:15:48.832Z,61.2
2022-09-02T03:18:37.774Z,59.3
2022-09-02T03:21:25.402Z,59.4
2022-09-02T03:24:13.222Z,60
2022-09-02T03:27:00.799Z,61.4
2022-09-02T03:29:48.659Z,61.9
2022-09-02T03:32:36.152Z,63
2022-09-02T03:35:24.459Z,62
2022-09-02T03:38:13.492Z,60.4
2022-09-02T03:41:01.082Z,59.1
2022-09-02T03:43:48.596Z,59
2022-09-02T03:46:36.971Z,60.1
2022-09-02T03:49:24.739Z,61.6
2022-09-02T03:52:12.979Z,62
2022-09-02T03:55:00.560Z,63.5
2022-09-02T03:57:48.990Z,63.2
2022-09-02T04:00:37.166Z,60.5
2022-09-02T04:03:25.536Z,59.6
2022-09-02T04:06:13.446Z,58.9
2022-09-02T04:09:03.283Z,60.5
2022-09-02T04:11:51.268Z,62
2022-09-02T04:14:39.472Z,63.5
2022-09-02T04:17:26.975Z,63.1
2022-09-02T04:20:14.633Z,60.7
2022-09-02T04:23:02.195Z,56.6
2022-09-02T04:25:49.979Z,57.3
2022-09-02T04:28:37.979Z,59.6
2022-09-02T04:31:26.410Z,61.3
2022-09-02T04:34:15.477Z,62.7
2022-09-02T04:37:03.141Z,63.9
2022-09-02T04:39:51.224Z,62.7
2022-09-02T04:42:39.161Z,60.3
2022-09-02T04:45:29.852Z,59.1
2022-09-02T04:48:17.724Z,59.4
2022-09-02T04:51:05.454Z,60.8
2022-09-02T04:53:57.017Z,62.4
2022-09-02T04:56:45.698Z,64.3
2022-09-02T04:59:33.226Z,61.8
2022-09-02T05:02:21.505Z,59.1
2022-09-02T05:05:09.074Z,59.3
2022-09-02T05:07:57.694Z,60.9
2022-09-02T05:10:45.365Z,62.1
2022-09-02T05:13:35.098Z,64.5
2022-09-02T05:16:25.144Z,62.4
2022-09-02T05:19:15.126Z,56.7
2022-09-02T05:22:02.673Z,57.3
2022-09-02T05:24:50.456Z,59.7
2022-09-02T05:27:38.226Z,62.1
2022-09-02T05:30:25.915Z,63.5
2022-09-02T05:33:14.667Z,63.9
2022-09-02T05:36:02.681Z,60.4
2022-09-02T05:38:50.986Z,57.2
2022-09-02T05:41:39.157Z,58.3
2022-09-02T05:44:26.974Z,60.8
2022-09-02T05:47:15.925Z,62.2
2022-09-02T05:50:03.976Z,63.4
2022-09-02T05:52:55.865Z,59.4
2022-09-02T05:55:43.977Z,58.5
2022-09-02T05:58:31.734Z,60.5
2022-09-02T06:01:19.389Z,62
2022-09-02T06:04:07.698Z,64
2022-09-02T06:06:55.370Z,61.7
2022-09-02T06:09:42.966Z,60.3
2022-09-02T06:12:30.778Z,59
2022-09-02T06:15:18.519Z,59.5
2022-09-02T06:18:06.025Z,61.5
2022-09-02T06:20:53.675Z,62.3
2022-09-02T06:23:41.519Z,63.5
2022-09-02T06:26:29.546Z,59.6
2022-09-02T06:29:17.698Z,58
2022-09-02T06:32:06.652Z,59.4
2022-09-02T06:34:54.241Z,61.2
2022-09-02T06:37:41.761Z,62.4
2022-09-02T06:40:29.468Z,62
2022-09-02T06:43:17.470Z,58.8
2022-09-02T06:46:05.338Z,58.1
2022-09-02T06:48:54.006Z,59
2022-09-02T06:51:42.250Z,60.6
2022-09-02T06:54:32.468Z,61.5
2022-09-02T06:57:20.357Z,62.4
2022-09-02T07:00:09.888Z,61.6
2022-09-02T07:02:58.481Z,57.2
2022-09-02T07:06:18.330Z,57.9
2022-09-02T07:09:06.260Z,58.3
2022-09-02T07:11:58.932Z,59.8
2022-09-02T07:14:50.129Z,60.8
2022-09-02T07:17:38.746Z,61.4
2022-09-02T07:20:26.267Z,62.9
2022-09-02T07:23:13.926Z,61.8
2022-09-02T07:26:01.873Z,57.6
2022-09-02T07:28:49.712Z,58
2022-09-02T07:31:38.071Z,58.9
2022-09-02T07:34:28.330Z,59.2
2022-09-02T07:37:16.495Z,60.1
2022-09-02T07:40:04.576Z,61.1
2022-09-02T07:45:43.368Z,62
2022-09-02T07:48:31.700Z,61.2
2022-09-02T07:51:19.981Z,60.9
2022-09-02T07:54:08.226Z,61.6
2022-09-02T07:56:57.930Z,61.7
2022-09-02T07:59:45.747Z,61.6
2022-09-02T08:02:33.465Z,60.9
2022-09-02T08:05:21.618Z,60.1
2022-09-02T08:08:10.025Z,60.2
2022-09-02T08:10:58.544Z,60
2022-09-02T08:13:46.307Z,59.6
2022-09-02T08:16:34.045Z,59.7
2022-09-02T08:19:23.726Z,59.4
2022-09-02T08:22:12.022Z,58.6
2022-09-02T08:24:59.962Z,57.5
2022-09-02T08:27:47.952Z,58.2
2022-09-02T08:30:35.815Z,58
2022-09-02T08:33:24.202Z,57.6
2022-09-02T08:36:11.808Z,56.9
2022-09-02T08:38:59.960Z,57
2022-09-02T08:41:48.795Z,55.1
2022-09-02T08:44:47.024Z,56.1
2022-09-02T08:47:39.974Z,55.9
2022-09-02T08:50:32.511Z,52.9
2022-09-02T08:53:23.996Z,55.2
2022-09-02T08:56:18.022Z,53.8
2022-09-02T08:59:06.241Z,54.1
2022-09-02T09:01:57.778Z,53.7
2022-09-02T09:04:58.287Z,53.7
2022-09-02T09:07:58.471Z,53.6
2022-09-02T09:10:55.472Z,52.9
2022-09-02T09:13:48.075Z,52.8
2022-09-02T09:16:54.555Z,52.5
2022-09-02T09:19:45.025Z,52.5
2022-09-02T09:22:36.611Z,52.4
2022-09-02T09:25:26.506Z,52.7
2022-09-02T09:28:15.160Z,52.3
2022-09-02T09:31:02.804Z,51.7
2022-09-02T09:33:50.703Z,51.4
2022-09-02T09:36:44.036Z,50.6
2022-09-02T09:39:36.337Z,51.5
2022-09-02T09:42:24.822Z,49.2
2022-09-02T09:45:22.329Z,50.1
2022-09-02T09:48:19.691Z,50.4
2022-09-02T09:51:12.544Z,49.6
2022-09-02T09:54:01.017Z,49.1
2022-09-02T09:57:01.273Z,48.2
2022-09-02T10:00:06.492Z,48.4
2022-09-02T10:03:16.641Z,47.5
2022-09-02T10:06:08.909Z,46
2022-09-02T10:09:09.262Z,47
2022-09-02T10:12:29.286Z,47
2022-09-02T10:15:18.405Z,46.8
2022-09-02T10:18:15.074Z,46.5
2022-09-02T10:21:15.404Z,46.2
2022-09-02T10:24:22.019Z,46.8
2022-09-02T10:27:29.515Z,45.4
2022-09-02T10:30:25.874Z,45.1
2022-09-02T10:33:18.027Z,43.1
2022-09-02T10:36:19.850Z,43.7
2022-09-02T10:39:18.242Z,44.3
2022-09-02T10:42:14.532Z,45.2
2022-09-02T10:45:07.284Z,45.1
2022-09-02T10:48:02.678Z,45.3
2022-09-02T10:51:12.235Z,45
2022-09-02T10:54:08.795Z,45.4
2022-09-02T10:57:08.564Z,44.4
2022-09-02T11:00:00.702Z,45.5
2022-09-02T11:02:56.734Z,45.6
2022-09-02T11:05:55.755Z,45.9
2022-09-02T11:08:51.422Z,45.2
2022-09-02T11:11:44.252Z,46
2022-09-02T11:14:38.268Z,45.3
2022-09-02T11:17:35.622Z,44.5
2022-09-02T11:20:29.668Z,45.3
2022-09-02T11:23:26.512Z,42.6
2022-09-02T11:26:20.225Z,42.7
2022-09-02T11:29:14.381Z,43.5
2022-09-02T11:32:05.693Z,44.4
2022-09-02T11:35:02.271Z,43.7
2022-09-02T11:37:55.105Z,44.2
2022-09-02T11:41:32.777Z,43.3
2022-09-02T11:44:37.931Z,43.5
2022-09-02T11:48:14.165Z,43.1
2022-09-02T11:51:24.781Z,44.8
2022-09-02T11:54:27.561Z,43.8
2022-09-02T11:57:20.862Z,43.3
2022-09-02T12:00:10.861Z,42.9
2022-09-02T12:03:37.779Z,43.6
2022-09-02T12:06:32.812Z,42.5
2022-09-02T12:09:20.524Z,42.5
2022-09-02T12:12:29.268Z,42.3
2022-09-02T12:15:49.756Z,40.6
2022-09-02T12:19:22.298Z,42.5
2022-09-02T12:22:24.881Z,42.6
2022-09-02T12:25:23.419Z,39.1
2022-09-02T12:28:28.215Z,40.1
2022-09-02T12:31:16.404Z,40.5
2022-09-02T12:34:26.637Z,38
2022-09-02T12:37:55.413Z,38.1
2022-09-02T12:41:07.793Z,38.9
2022-09-02T12:44:17.933Z,39.4
2022-09-02T12:47:14.266Z,37.5
2022-09-02T12:50:17.158Z,38.4
2022-09-02T12:53:16.941Z,37.2
2022-09-02T12:56:19.917Z,37.6
2022-09-02T12:59:09.109Z,35.7
2022-09-02T13:04:58.628Z,36.9
2022-09-02T13:08:02.437Z,35.3
2022-09-02T13:11:28.896Z,35
2022-09-02T13:14:43.580Z,35.4
2022-09-02T13:18:07.845Z,33.3
2022-09-02T13:21:28.100Z,30.6
2022-09-02T13:26:49.339Z,32
2022-09-02T13:29:58.792Z,32.9
2022-09-02T13:32:58.144Z,34.3
2022-09-02T13:35:51.671Z,34.7
2022-09-02T13:38:41.822Z,34.7
2022-09-02T13:41:29.470Z,35.5
2022-09-02T13:44:18.285Z,36.6
2022-09-02T13:47:07.379Z,35.8
2022-09-02T13:50:00.999Z,36.4
2022-09-02T13:53:45.448Z,35.2
2022-09-02T13:56:47.118Z,32.3
2022-09-02T13:59:34.948Z,34.2
2022-09-02T14:02:25.941Z,34.5
2022-09-02T14:05:16.039Z,34.6
2022-09-02T14:08:07.837Z,33.7
2022-09-02T14:11:02.255Z,33.6
2022-09-02T14:13:53.564Z,32.4
2022-09-02T14:16:42.782Z,33
2022-09-02T14:19:30.567Z,31.7
2022-09-02T14:22:18.177Z,31.8
2022-09-02T14:25:11.930Z,31.4
2022-09-02T14:28:01.520Z,31.4
2022-09-02T14:30:58.102Z,32.4
2022-09-02T14:33:48.288Z,33.5
2022-09-02T14:36:36.508Z,33.4
2022-09-02T14:39:25.098Z,34
2022-09-02T14:42:12.792Z,34.4
2022-09-02T14:45:01.449Z,34.4
2022-09-02T14:47:53.336Z,35.1
2022-09-02T14:50:43.274Z,35.3
2022-09-02T14:53:30.909Z,36
2022-09-02T14:56:22.128Z,36
2022-09-02T14:59:30.041Z,37
2022-09-02T15:02:17.575Z,36
2022-09-02T15:05:09.008Z,36
2022-09-02T15:07:59.448Z,36.6
2022-09-02T15:10:47.446Z,37.1
2022-09-02T15:13:35.608Z,36.9
2022-09-02T15:16:23.712Z,37.3
2022-09-02T15:19:11.507Z,37.3
2022-09-02T15:21:59.053Z,37.7
2022-09-02T15:24:46.724Z,36.9
2022-09-02T15:27:35.297Z,37.5
2022-09-02T15:30:22.966Z,35.6
2022-09-02T15:33:19.828Z,37
2022-09-02T15:36:07.697Z,35.7
2022-09-02T15:38:57.842Z,36.4
2022-09-02T15:41:45.515Z,36.8
2022-09-02T15:44:34.716Z,36.5
2022-09-02T15:47:22.302Z,36.2
2022-09-02T15:50:09.850Z,36.6
2022-09-02T15:52:57.597Z,36.9
2022-09-02T15:55:45.377Z,36.5
2022-09-02T15:58:32.977Z,35.7
2022-09-02T16:01:24.634Z,36.4
2022-09-02T16:04:14.555Z,36.7
2022-09-02T16:07:02.975Z,37.3
2022-09-02T16:09:51.014Z,37.5
2022-09-02T16:12:38.820Z,38
2022-09-02T16:15:26.834Z,38.8
2022-09-02T16:18:14.722Z,38.7
2022-09-02T16:21:02.390Z,38.7
2022-09-02T16:23:51.328Z,39.1
2022-09-02T16:26:38.974Z,39.5
2022-09-02T16:29:28.043Z,40.4
2022-09-02T16:32:27.702Z,40.8
2022-09-02T16:35:15.578Z,41.7
2022-09-02T16:38:03.289Z,42
2022-09-02T16:40:50.905Z,42.7
2022-09-02T16:43:39.950Z,42.9
2022-09-02T16:46:27.764Z,43.2
2022-09-02T16:49:15.771Z,43.4
2022-09-02T16:52:05.558Z,44.2
2022-09-02T16:54:53.212Z,44.4
2022-09-02T16:57:40.916Z,44.9
2022-09-02T17:00:28.390Z,45
2022-09-02T17:03:15.928Z,45
2022-09-02T17:06:03.621Z,45.3
2022-09-02T17:08:52.301Z,44.9
2022-09-02T17:11:39.993Z,45.4
2022-09-02T17:14:29.794Z,45
2022-09-02T17:17:17.403Z,45.8
2022-09-02T17:20:05.122Z,45.4
2022-09-02T17:22:53.801Z,46.6
2022-09-02T17:25:41.572Z,46.1
2022-09-02T17:28:30.996Z,45.5
2022-09-02T17:31:18.649Z,45.7
2022-09-02T17:34:09.747Z,45.7
2022-09-02T17:36:57.910Z,45.8
2022-09-02T17:39:46.297Z,45.4
2022-09-02T17:42:34.764Z,46.4
2022-09-02T17:45:22.729Z,46.2
2022-09-02T17:48:35.314Z,45.9
2022-09-02T17:51:26.640Z,45.8
2022-09-02T17:54:16.062Z,46.3
2022-09-02T17:57:03.979Z,47
2022-09-02T18:00:05.118Z,46.5
2022-09-02T18:02:56.456Z,46.4
2022-09-02T18:06:13.115Z,46.6
2022-09-02T18:09:05.714Z,46.9
2022-09-02T18:11:57.732Z,46.7
2022-09-02T18:14:45.734Z,47.6
2022-09-02T18:17:40.602Z,46.9
2022-09-02T18:20:32.705Z,46.9
2022-09-02T18:23:27.811Z,47.5
2022-09-02T18:26:31.976Z,47.2
2022-09-02T18:29:38.993Z,47.3
2022-09-02T18:32:39.148Z,47.6
2022-09-02T18:35:41.138Z,47.9
2022-09-02T18:38:37.606Z,47.7
2022-09-02T18:41:34.101Z,47.6
2022-09-02T18:44:32.524Z,47.5
2022-09-02T18:47:29.526Z,47.7
2022-09-02T18:50:45.035Z,48.2
2022-09-02T18:53:42.349Z,48.7
2022-09-02T18:56:33.735Z,49.8
2022-09-02T18:59:25.968Z,50.7
2022-09-02T19:02:22.844Z,51.4
2022-09-02T19:05:17.683Z,52
2022-09-02T19:08:09.901Z,50.3
2022-09-02T19:11:18.604Z,50.7
2022-09-02T19:14:07.986Z,49.8
2022-09-02T19:17:07.430Z,50.2
2022-09-02T19:19:57.184Z,50.6
2022-09-02T19:22:45.303Z,50
2022-09-02T19:25:37.368Z,49.9
2022-09-02T19:28:29.256Z,50.2
2022-09-02T19:31:18.304Z,50.4
2022-09-02T19:34:09.195Z,50.5
2022-09-02T19:36:58.392Z,51.4
2022-09-02T19:39:47.061Z,50.6
2022-09-02T19:42:35.905Z,50.4
2022-09-02T19:45:23.886Z,50.7
2022-09-02T19:48:14.114Z,51.4
2022-09-02T19:51:02.689Z,52.1
2022-09-02T19:53:56.301Z,51.7
2022-09-02T19:56:44.959Z,51.9
2022-09-02T19:59:32.614Z,52.2
2022-09-02T20:02:20.332Z,51.3
2022-09-02T20:05:08.125Z,52.5
2022-09-02T20:07:58.055Z,52.8
2022-09-02T20:10:46.304Z,53.3
2022-09-02T20:13:41.755Z,53.8
2022-09-02T20:16:29.802Z,53.2
2022-09-02T20:19:17.789Z,53.5
2022-09-02T20:22:06.091Z,54.1
2022-09-02T20:24:56.530Z,53.9
2022-09-02T20:27:45.268Z,53.9
2022-09-02T20:30:48.827Z,54.7
2022-09-02T20:33:44.058Z,54.4
2022-09-02T20:36:39.237Z,54.5
2022-09-02T20:39:34.522Z,55
2022-09-02T20:42:38.046Z,55.2
2022-09-02T20:45:45.144Z,55.7
2022-09-02T20:48:40.311Z,55.2
2022-09-02T20:51:42.927Z,55.2
2022-09-02T20:54:39.878Z,55.2
2022-09-02T20:57:38.006Z,56.4
2022-09-02T21:01:00.929Z,56.5
2022-09-02T21:03:52.145Z,55.8
2022-09-02T21:06:47.064Z,55.5
2022-09-02T21:09:38.869Z,56
2022-09-02T21:12:36.825Z,56.5
2022-09-02T21:15:31.075Z,55.8
2022-09-02T21:18:24.875Z,57.5
2022-09-02T21:21:20.736Z,57.4
2022-09-02T21:24:15.717Z,57.5
2022-09-02T21:27:09.600Z,57.6
2022-09-02T21:30:03.587Z,57.5
2022-09-02T21:32:54.235Z,58.2
2022-09-02T21:35:45.647Z,58.2
2022-09-02T21:38:38.379Z,58.2
2022-09-02T21:41:30.199Z,56.6
2022-09-02T21:44:22.397Z,58.2
2022-09-02T21:47:19.134Z,58.9
2022-09-02T21:50:12.713Z,58.4
2022-09-02T21:53:07.032Z,58.2
2022-09-02T21:56:04.591Z,58.4
2022-09-02T21:59:19.847Z,58.6
2022-09-02T22:02:24.969Z,58.2
2022-09-02T22:05:23.749Z,58.9
2022-09-02T22:08:21.500Z,59.1
2022-09-02T22:11:17.681Z,59.4
2022-09-02T22:14:12.295Z,59.6
2022-09-02T22:17:07.506Z,58.8
2022-09-02T22:20:05.137Z,59.6
2022-09-02T22:22:53.915Z,60.1
2022-09-02T22:25:50.645Z,60.2
2022-09-02T22:28:40.372Z,60.2
2022-09-02T22:31:31.861Z,60.5
2022-09-02T22:34:24.772Z,61.6
2022-09-02T22:37:15.256Z,60.9
2022-09-02T22:40:09.268Z,60.9
2022-09-02T22:43:01.464Z,62.4
2022-09-02T22:45:55.975Z,61.4
2022-09-02T22:49:20.699Z,58.2
2022-09-02T22:53:40.701Z,56.5
2022-09-02T22:56:29.713Z,57.3
2022-09-02T22:59:27.373Z,58
2022-09-02T23:02:26.761Z,58.6
2022-09-02T23:05:21.444Z,59.9
2022-09-02T23:08:29.693Z,60.1
2022-09-02T23:11:21.789Z,60.6
2022-09-02T23:14:15.969Z,61.1
2022-09-02T23:17:13.497Z,61.4
2022-09-02T23:20:19.106Z,62
2022-09-02T23:23:11.599Z,62.7
2022-09-02T23:26:09.230Z,60.7
2022-09-02T23:29:08.860Z,56.9
2022-09-02T23:32:02.752Z,56.5
2022-09-02T23:35:08.163Z,57.9
2022-09-02T23:38:04.995Z,58.5
2022-09-02T23:41:11.906Z,58.8
2022-09-02T23:44:02.616Z,60
2022-09-02T23:46:51.707Z,60.8
2022-09-02T23:49:53.183Z,60.9
2022-09-02T23:52:51.211Z,61.4
2022-09-02T23:55:44.708Z,61.3
2022-09-02T23:58:43.451Z,62.5
